Time;durP1;ratioP1;P1;durP2;ratioP2;P2;SDS_P1;SDS_P2;PMS_P1;PMS_P2;Temp;Humidity;BMP_temperature;BMP_pressure;BME280_temperature;BME280_humidity;BME280_pressure;Samples;Min_cycle;Max_cycle;Signal;HPM_P1;HPM_P2
2023/03/25 00:00:13;;;;;;;6.32;0.70;;;9.90;99.90;;;;;;5080035;28;20494;-36
2023/03/25 00:02:39;;;;;;;6.93;1.27;;;9.90;99.90;;;;;;5066644;28;20047;-36
2023/03/25 00:05:05;;;;;;;6.68;0.80;;;9.90;99.90;;;;;;5084672;28;20047;-36
2023/03/25 00:07:32;;;;;;;8.30;1.00;;;9.90;99.90;;;;;;5085755;28;20074;-36
2023/03/25 00:09:58;;;;;;;6.47;0.60;;;9.90;99.90;;;;;;5083976;28;20032;-36
2023/03/25 00:12:23;;;;;;;3.42;0.45;;;9.90;99.90;;;;;;5085770;28;20058;-36
2023/03/25 00:14:57;;;;;;;6.85;1.00;;;9.90;99.90;;;;;;5067800;28;20110;-36
2023/03/25 00:17:25;;;;;;;8.02;0.65;;;9.90;99.90;;;;;;5081660;28;20106;-35
2023/03/25 00:19:51;;;;;;;8.88;0.90;;;9.90;99.90;;;;;;5087904;28;20040;-36
2023/03/25 00:22:20;;;;;;;8.60;0.90;;;9.80;99.90;;;;;;5086192;28;20091;-38
2023/03/25 00:24:47;;;;;;;6.07;0.95;;;9.90;99.90;;;;;;5084044;28;20044;-36
2023/03/25 00:27:13;;;;;;;6.05;0.60;;;9.80;99.90;;;;;;5083049;28;20558;-36
2023/03/25 00:29:41;;;;;;;8.02;0.85;;;9.80;99.90;;;;;;5084915;28;20051;-36
2023/03/25 00:32:06;;;;;;;5.97;0.90;;;9.80;99.90;;;;;;5087357;28;20071;-36
2023/03/25 00:34:34;;;;;;;5.72;0.70;;;9.70;99.90;;;;;;5085579;28;20068;-43
2023/03/25 00:37:01;;;;;;;3.47;0.63;;;9.70;99.90;;;;;;5084587;28;20135;-36
2023/03/25 00:39:27;;;;;;;8.15;1.00;;;9.60;99.90;;;;;;5078911;28;20102;-36
2023/03/25 00:41:56;;;;;;;5.50;0.60;;;9.60;99.90;;;;;;5084014;28;20040;-36
2023/03/25 00:44:22;;;;;;;6.20;1.55;;;9.60;99.90;;;;;;5080512;28;20048;-36
2023/03/25 00:46:47;;;;;;;4.53;0.80;;;9.50;99.90;;;;;;5086718;28;20048;-36
2023/03/25 00:49:13;;;;;;;10.25;0.88;;;9.50;99.90;;;;;;5086333;28;20417;-37
2023/03/25 00:51:39;;;;;;;8.45;1.08;;;9.40;99.90;;;;;;5084694;28;20501;-36
2023/03/25 00:54:04;;;;;;;7.85;0.95;;;9.40;99.90;;;;;;5086147;28;20060;-37
2023/03/25 00:56:30;;;;;;;7.30;0.80;;;9.40;99.90;;;;;;5085268;28;20146;-37
2023/03/25 00:58:56;;;;;;;7.00;0.80;;;9.40;99.90;;;;;;5091448;28;20051;-37
2023/03/25 01:01:26;;;;;;;8.57;1.10;;;9.40;99.90;;;;;;5085561;28;20515;-36
2023/03/25 01:03:56;;;;;;;5.55;0.90;;;9.40;99.90;;;;;;5090596;28;20109;-36
2023/03/25 01:06:23;;;;;;;9.75;1.35;;;9.40;99.90;;;;;;5090004;28;20471;-36
2023/03/25 01:08:51;;;;;;;8.63;0.90;;;9.40;99.90;;;;;;5083718;28;20057;-36
2023/03/25 01:11:20;;;;;;;8.23;1.35;;;9.30;99.90;;;;;;5084745;28;20505;-37
2023/03/25 01:13:46;;;;;;;8.88;1.85;;;9.30;99.90;;;;;;5084528;28;20055;-37
2023/03/25 01:16:12;;;;;;;3.97;0.93;;;9.30;99.90;;;;;;5085201;28;20496;-37
2023/03/25 01:18:38;;;;;;;8.98;1.17;;;9.20;99.90;;;;;;5090694;28;20101;-36
2023/03/25 01:21:05;;;;;;;7.97;1.20;;;9.20;99.90;;;;;;5090664;28;20082;-37
2023/03/25 01:23:31;;;;;;;11.88;1.20;;;9.10;99.90;;;;;;5089933;28;20067;-37
2023/03/25 01:25:57;;;;;;;8.52;1.00;;;9.10;99.90;;;;;;5085709;28;20044;-36
2023/03/25 01:28:22;;;;;;;10.02;1.40;;;9.00;99.90;;;;;;5090148;28;20056;-36
2023/03/25 01:30:48;;;;;;;6.10;1.20;;;9.00;99.90;;;;;;5089978;28;20135;-37
2023/03/25 01:33:14;;;;;;;4.40;0.98;;;8.90;99.90;;;;;;5081128;28;20047;-36
2023/03/25 01:35:40;;;;;;;10.68;1.15;;;8.90;99.90;;;;;;5067776;28;20173;-36
2023/03/25 01:38:06;;;;;;;6.97;1.05;;;8.90;99.90;;;;;;5089715;28;20044;-36
2023/03/25 01:40:32;;;;;;;8.05;1.20;;;8.90;99.90;;;;;;5087442;28;20712;-36
2023/03/25 01:42:58;;;;;;;5.93;1.23;;;8.90;99.90;;;;;;5084435;28;20517;-37
2023/03/25 01:45:31;;;;;;;14.85;1.55;;;8.80;99.90;;;;;;5079853;28;20055;-37
2023/03/25 01:48:21;;;;;;;6.70;1.25;;;8.80;99.90;;;;;;5088049;28;20086;-37
2023/03/25 01:50:57;;;;;;;7.65;1.13;;;8.80;99.90;;;;;;5086096;28;20048;-36
2023/03/25 01:53:27;;;;;;;10.07;1.30;;;8.70;99.90;;;;;;5086985;28;20052;-36
2023/03/25 01:55:53;;;;;;;10.00;1.63;;;8.70;99.90;;;;;;5083290;28;20052;-36
2023/03/25 01:58:20;;;;;;;9.55;1.67;;;8.70;99.90;;;;;;5089333;28;20074;-35
2023/03/25 02:00:49;;;;;;;9.95;1.40;;;8.70;99.90;;;;;;5088253;28;20055;-36
2023/03/25 02:03:16;;;;;;;7.22;1.20;;;8.70;99.90;;;;;;5089555;28;20413;-37
2023/03/25 02:05:57;;;;;;;10.82;1.10;;;8.60;99.90;;;;;;5084680;28;20413;-36
2023/03/25 02:08:24;;;;;;;4.35;0.70;;;8.60;99.90;;;;;;5087724;28;20135;-35
2023/03/25 02:10:51;;;;;;;4.43;1.02;;;8.60;99.90;;;;;;5085461;28;20079;-36
2023/03/25 02:13:18;;;;;;;8.60;0.95;;;8.60;99.90;;;;;;5088053;28;20056;-36
2023/03/25 02:16:15;;;;;;;6.65;1.60;;;8.60;99.90;;;;;;5082868;28;20048;-36
2023/03/25 02:19:00;;;;;;;6.65;1.27;;;8.60;99.90;;;;;;5086219;28;20056;-39
2023/03/25 02:22:06;;;;;;;9.80;1.25;;;8.70;99.90;;;;;;5090053;28;20113;-37
2023/03/25 02:25:00;;;;;;;4.15;0.82;;;8.70;99.90;;;;;;5078709;28;20142;-37
2023/03/25 02:27:40;;;;;;;7.80;1.13;;;8.70;99.90;;;;;;5084736;28;20051;-37
2023/03/25 02:30:15;;;;;;;9.38;1.42;;;8.70;99.90;;;;;;5088149;28;20051;-42
2023/03/25 02:32:59;;;;;;;10.13;1.17;;;8.70;99.90;;;;;;5086785;28;20075;-37
2023/03/25 02:35:46;;;;;;;9.90;1.30;;;8.70;99.90;;;;;;5088390;28;20060;-37
2023/03/25 02:38:28;;;;;;;10.35;0.90;;;8.70;99.90;;;;;;5089134;28;20543;-36
2023/03/25 02:41:03;;;;;;;9.32;1.58;;;8.70;99.90;;;;;;5079546;28;20175;-36
2023/03/25 02:43:41;;;;;;;9.93;1.20;;;8.70;99.90;;;;;;5087994;28;20064;-36
2023/03/25 02:46:11;;;;;;;7.85;1.08;;;8.70;99.90;;;;;;5087986;28;20505;-36
2023/03/25 02:48:43;;;;;;;12.35;1.65;;;8.70;99.90;;;;;;5089309;28;20044;-36
2023/03/25 02:51:17;;;;;;;8.35;1.38;;;8.80;99.90;;;;;;5087914;28;20079;-36
2023/03/25 02:53:47;;;;;;;14.80;1.42;;;8.80;99.90;;;;;;5079714;28;20069;-37
2023/03/25 02:56:16;;;;;;;16.92;1.10;;;8.80;99.90;;;;;;5073614;28;20048;-46
2023/03/25 02:58:44;;;;;;;12.88;1.50;;;8.80;99.90;;;;;;5089018;28;20520;-36
2023/03/25 03:01:13;;;;;;;9.00;2.10;;;8.80;99.90;;;;;;5086813;28;20048;-36
2023/03/25 03:03:40;;;;;;;7.55;0.98;;;8.80;99.90;;;;;;5088717;28;20501;-35
2023/03/25 03:06:07;;;;;;;9.90;1.88;;;8.80;99.90;;;;;;5088001;28;20048;-36
2023/03/25 03:08:38;;;;;;;13.18;1.98;;;8.70;99.90;;;;;;5088954;28;20501;-37
2023/03/25 03:11:22;;;;;;;7.72;1.15;;;8.70;99.90;;;;;;5080072;28;20048;-36
2023/03/25 03:14:27;;;;;;;11.10;1.00;;;8.70;99.90;;;;;;5088628;28;20482;-37
2023/03/25 03:17:23;;;;;;;14.40;1.38;;;8.70;99.90;;;;;;5087721;28;20056;-37
2023/03/25 03:19:53;;;;;;;5.90;1.27;;;8.70;99.90;;;;;;5084960;28;29743;-38
2023/03/25 03:22:35;;;;;;;14.98;1.95;;;8.70;99.90;;;;;;5087589;28;20558;-45
2023/03/25 03:25:16;;;;;;;8.02;1.85;;;8.70;99.90;;;;;;5083204;28;20135;-36
2023/03/25 03:27:55;;;;;;;9.23;1.60;;;8.70;99.90;;;;;;5080240;28;20464;-37
2023/03/25 03:30:31;;;;;;;11.00;2.13;;;8.70;99.90;;;;;;5087521;28;20047;-36
2023/03/25 03:33:24;;;;;;;11.38;1.38;;;8.70;99.90;;;;;;5088355;28;20063;-36
2023/03/25 03:36:03;;;;;;;9.95;1.67;;;8.70;99.90;;;;;;5083965;28;20485;-36
2023/03/25 03:38:40;;;;;;;11.77;1.33;;;8.70;99.90;;;;;;5087228;28;20125;-36
2023/03/25 03:41:09;;;;;;;8.90;1.27;;;8.70;99.90;;;;;;5085332;28;20048;-36
2023/03/25 03:43:53;;;;;;;8.05;1.75;;;8.70;99.90;;;;;;5084501;28;20498;-37
2023/03/25 03:46:27;;;;;;;7.63;0.90;;;8.70;99.90;;;;;;5081983;28;20596;-36
2023/03/25 03:48:56;;;;;;;14.65;2.00;;;8.60;99.90;;;;;;5084679;28;20052;-36
2023/03/25 03:51:30;;;;;;;8.43;1.02;;;8.60;99.90;;;;;;5086643;28;20055;-36
2023/03/25 03:54:12;;;;;;;8.60;1.77;;;8.60;99.90;;;;;;5087617;28;20051;-36
2023/03/25 03:56:52;;;;;;;10.38;1.55;;;8.70;99.90;;;;;;5082889;28;20405;-36
2023/03/25 03:59:41;;;;;;;9.10;1.60;;;8.60;99.90;;;;;;5079125;28;20044;-36
2023/03/25 04:02:27;;;;;;;8.90;1.27;;;8.70;99.90;;;;;;5086725;28;20510;-36
2023/03/25 04:04:53;;;;;;;11.00;2.15;;;8.70;99.90;;;;;;5085320;28;20059;-36
2023/03/25 04:07:37;;;;;;;4.68;1.00;;;8.70;99.90;;;;;;5087103;28;20133;-36
2023/03/25 04:10:17;;;;;;;9.02;1.77;;;8.70;99.90;;;;;;5087376;28;20051;-36
2023/03/25 04:12:52;;;;;;;5.65;1.30;;;8.70;99.90;;;;;;5086255;28;20127;-36
2023/03/25 04:15:19;;;;;;;5.72;1.58;;;8.70;99.90;;;;;;5086133;28;20052;-35
2023/03/25 04:17:46;;;;;;;14.57;1.50;;;8.70;99.90;;;;;;5087485;28;20076;-36
2023/03/25 04:20:24;;;;;;;7.20;1.42;;;8.70;99.90;;;;;;5081821;28;20059;-36
2023/03/25 04:22:51;;;;;;;9.30;1.83;;;8.70;99.90;;;;;;5081815;28;20060;-36
2023/03/25 04:25:20;;;;;;;12.38;2.03;;;8.70;99.90;;;;;;5087918;28;20048;-36
2023/03/25 04:27:47;;;;;;;15.43;2.10;;;8.70;99.90;;;;;;5084232;28;20044;-35
2023/03/25 04:30:16;;;;;;;10.35;1.60;;;8.60;99.90;;;;;;5086574;28;20059;-36
2023/03/25 04:32:45;;;;;;;5.03;1.45;;;8.60;99.90;;;;;;5091778;28;20492;-36
2023/03/25 04:35:12;;;;;;;7.30;1.33;;;8.60;99.90;;;;;;5085318;28;20513;-35
2023/03/25 04:37:38;;;;;;;6.70;1.48;;;8.50;99.90;;;;;;5089036;28;20047;-36
2023/03/25 04:40:08;;;;;;;7.22;0.90;;;8.50;99.90;;;;;;5090616;28;20091;-37
2023/03/25 04:42:36;;;;;;;13.10;2.10;;;8.50;99.90;;;;;;5091479;28;20044;-37
2023/03/25 04:45:04;;;;;;;8.60;1.25;;;8.50;99.90;;;;;;5090932;28;20051;-36
2023/03/25 04:47:31;;;;;;;13.13;2.05;;;8.50;99.90;;;;;;5090286;28;20055;-36
2023/03/25 04:49:56;;;;;;;7.57;0.98;;;8.50;99.90;;;;;;5086386;28;20145;-36
2023/03/25 04:52:22;;;;;;;9.60;2.08;;;8.50;99.90;;;;;;5085791;28;20456;-36
2023/03/25 04:54:48;;;;;;;10.43;1.90;;;8.50;99.90;;;;;;5089935;28;20059;-36
2023/03/25 04:57:14;;;;;;;10.85;2.20;;;8.50;99.90;;;;;;5085485;28;20118;-36
2023/03/25 04:59:39;;;;;;;9.52;1.65;;;8.50;99.90;;;;;;5087834;28;20059;-36
2023/03/25 05:02:06;;;;;;;8.07;1.70;;;8.50;99.90;;;;;;5090495;28;20047;-36
2023/03/25 05:04:32;;;;;;;8.07;1.98;;;8.50;99.90;;;;;;5091373;28;20052;-36
2023/03/25 05:06:58;;;;;;;13.25;1.95;;;8.50;99.90;;;;;;5090862;28;20039;-37
2023/03/25 05:09:24;;;;;;;9.02;1.48;;;8.50;99.90;;;;;;5090441;28;20109;-36
2023/03/25 05:11:51;;;;;;;13.50;1.77;;;8.50;99.90;;;;;;5088616;28;20180;-41
2023/03/25 05:14:19;;;;;;;11.35;2.42;;;8.40;99.90;;;;;;5089784;28;20405;-37
2023/03/25 05:16:46;;;;;;;10.68;1.52;;;8.40;99.90;;;;;;5089292;28;20056;-36
2023/03/25 05:19:12;;;;;;;10.63;2.83;;;8.30;99.90;;;;;;5087497;28;20051;-36
2023/03/25 05:21:39;;;;;;;14.27;2.17;;;8.30;99.90;;;;;;5087472;28;20044;-36
2023/03/25 05:24:09;;;;;;;10.20;2.38;;;8.30;99.90;;;;;;5086931;28;20075;-36
2023/03/25 05:26:38;;;;;;;10.13;1.67;;;8.20;99.90;;;;;;5087661;28;20514;-36
2023/03/25 05:29:07;;;;;;;12.20;1.65;;;8.20;99.90;;;;;;5084090;28;20044;-36
2023/03/25 05:31:33;;;;;;;7.75;1.83;;;8.30;99.90;;;;;;5084460;28;20048;-36
2023/03/25 05:33:58;;;;;;;11.32;2.33;;;8.20;99.90;;;;;;5089395;28;20040;-36
2023/03/25 05:36:25;;;;;;;11.98;2.58;;;8.30;99.90;;;;;;5087427;28;20194;-43
2023/03/25 05:38:55;;;;;;;14.55;1.90;;;8.30;99.90;;;;;;5089906;28;20522;-36
2023/03/25 05:41:31;;;;;;;8.85;1.45;;;8.30;99.90;;;;;;5084149;28;20083;-36
2023/03/25 05:44:01;;;;;;;9.07;2.25;;;8.40;99.90;;;;;;5087872;28;20052;-37
2023/03/25 05:46:30;;;;;;;7.65;1.40;;;8.40;99.90;;;;;;5087824;28;20090;-37
2023/03/25 05:48:56;;;;;;;9.13;1.50;;;8.40;99.90;;;;;;5088745;28;20076;-36
2023/03/25 05:51:24;;;;;;;8.07;1.35;;;8.40;99.90;;;;;;5088972;28;20442;-37
2023/03/25 05:53:50;;;;;;;11.55;1.70;;;8.40;99.90;;;;;;5089055;28;20479;-37
2023/03/25 05:56:20;;;;;;;7.50;1.55;;;8.40;99.90;;;;;;5082649;28;20090;-37
2023/03/25 05:58:47;;;;;;;7.90;1.65;;;8.40;99.90;;;;;;5086747;28;20562;-34
2023/03/25 06:01:15;;;;;;;6.57;1.48;;;8.50;99.90;;;;;;5089760;28;20048;-35
2023/03/25 06:03:42;;;;;;;13.38;1.85;;;8.50;99.90;;;;;;5089937;28;20051;-35
2023/03/25 06:06:17;;;;;;;6.53;1.33;;;8.50;99.90;;;;;;5088559;28;20123;-37
2023/03/25 06:08:48;;;;;;;8.93;1.45;;;8.50;99.90;;;;;;5087310;28;20050;-36
2023/03/25 06:11:15;;;;;;;7.43;1.20;;;8.50;99.90;;;;;;5083965;28;20056;-36
2023/03/25 06:13:48;;;;;;;7.00;1.25;;;8.50;99.90;;;;;;5087129;28;20059;-36
2023/03/25 06:16:17;;;;;;;6.43;0.93;;;8.50;99.90;;;;;;5073823;28;20060;-36
2023/03/25 06:18:43;;;;;;;5.63;1.23;;;8.50;99.90;;;;;;5085090;28;20131;-36
2023/03/25 06:21:10;;;;;;;9.43;1.10;;;8.50;99.90;;;;;;5089442;28;20202;-36
2023/03/25 06:23:38;;;;;;;13.90;2.55;;;8.50;99.90;;;;;;5089304;28;20425;-35
2023/03/25 06:26:04;;;;;;;11.60;1.20;;;8.50;99.90;;;;;;5088592;28;20113;-36
2023/03/25 06:28:30;;;;;;;13.95;1.92;;;8.50;99.90;;;;;;5074414;28;20068;-36
2023/03/25 06:30:55;;;;;;;10.98;1.15;;;8.50;99.90;;;;;;5080543;28;20047;-37
2023/03/25 06:33:21;;;;;;;8.68;1.92;;;8.60;99.90;;;;;;5089621;28;20147;-36
2023/03/25 06:35:53;;;;;;;8.88;1.70;;;8.60;99.90;;;;;;5087120;28;20051;-37
2023/03/25 06:38:20;;;;;;;8.67;2.13;;;8.70;99.90;;;;;;5071558;28;20516;-36
2023/03/25 06:40:46;;;;;;;13.63;1.33;;;8.80;99.90;;;;;;5089721;28;20516;-36
2023/03/25 06:43:12;;;;;;;16.60;2.03;;;8.80;99.90;;;;;;5087521;28;20044;-42
2023/03/25 06:45:38;;;;;;;15.75;2.05;;;8.80;99.90;;;;;;5087086;28;20044;-36
2023/03/25 06:48:04;;;;;;;12.52;2.45;;;8.90;99.90;;;;;;5088641;28;20069;-36
2023/03/25 06:50:31;;;;;;;8.65;1.13;;;9.00;99.90;;;;;;5089627;28;20064;-35
2023/03/25 06:52:57;;;;;;;9.45;1.42;;;9.10;99.90;;;;;;5088763;28;20067;-35
2023/03/25 06:55:23;;;;;;;14.93;2.67;;;9.10;99.90;;;;;;5087790;28;20044;-37
2023/03/25 06:57:49;;;;;;;12.00;1.30;;;9.20;99.90;;;;;;5088543;28;20120;-36
2023/03/25 07:00:22;;;;;;;11.18;1.30;;;9.20;99.90;;;;;;5081934;28;20105;-38
2023/03/25 07:02:47;;;;;;;9.05;1.60;;;9.20;99.90;;;;;;5086680;28;20060;-36
2023/03/25 07:05:13;;;;;;;14.73;2.00;;;9.20;99.90;;;;;;5087030;28;20125;-36
2023/03/25 07:07:39;;;;;;;16.23;2.22;;;9.10;99.90;;;;;;5089177;28;20558;-37
2023/03/25 07:10:06;;;;;;;10.52;1.73;;;9.10;99.90;;;;;;5080081;28;20044;-36
2023/03/25 07:12:34;;;;;;;11.60;2.42;;;9.00;99.90;;;;;;5087957;28;20101;-36
2023/03/25 07:15:00;;;;;;;13.25;2.60;;;8.90;99.90;;;;;;5088491;28;20067;-38
2023/03/25 07:17:25;;;;;;;14.23;1.50;;;8.80;99.90;;;;;;5082945;28;20105;-37
2023/03/25 07:19:51;;;;;;;14.75;3.25;;;8.70;99.90;;;;;;5089109;28;20051;-36
2023/03/25 07:22:17;;;;;;;12.48;1.77;;;8.70;99.90;;;;;;5087969;28;20062;-38
2023/03/25 07:24:43;;;;;;;13.85;2.50;;;8.70;99.90;;;;;;5088776;28;20090;-37
2023/03/25 07:27:13;;;;;;;13.38;2.75;;;8.60;99.90;;;;;;5083499;28;20075;-36
2023/03/25 07:29:39;;;;;;;8.48;1.20;;;8.60;99.90;;;;;;5084905;28;20513;-37
2023/03/25 07:32:06;;;;;;;10.45;1.60;;;8.50;99.90;;;;;;5080510;28;20062;-36
2023/03/25 07:34:31;;;;;;;13.45;1.73;;;8.50;99.90;;;;;;5085645;28;20052;-37
2023/03/25 07:36:58;;;;;;;5.55;1.30;;;8.50;99.90;;;;;;5087924;28;20063;-37
2023/03/25 07:39:24;;;;;;;14.02;1.35;;;8.50;99.90;;;;;;5087147;28;20052;-36
2023/03/25 07:41:53;;;;;;;11.13;1.63;;;8.60;99.90;;;;;;5088956;28;20059;-36
2023/03/25 07:44:20;;;;;;;15.02;3.50;;;8.60;99.90;;;;;;5084249;28;20052;-36
2023/03/25 07:46:46;;;;;;;13.32;1.95;;;8.60;99.90;;;;;;5088972;28;20056;-36
2023/03/25 07:49:13;;;;;;;19.45;1.90;;;8.60;99.90;;;;;;5058936;28;20056;-37
2023/03/25 07:51:38;;;;;;;14.70;2.58;;;8.70;99.90;;;;;;5088604;28;20051;-37
2023/03/25 07:54:04;;;;;;;6.05;1.17;;;8.80;99.90;;;;;;5084751;28;20432;-37
2023/03/25 07:56:30;;;;;;;11.73;1.48;;;8.80;99.90;;;;;;5086903;28;20147;-36
2023/03/25 07:58:56;;;;;;;12.38;1.63;;;8.90;99.90;;;;;;5087789;28;20064;-37
2023/03/25 08:01:22;;;;;;;7.50;1.00;;;8.90;99.90;;;;;;5089327;28;20058;-38
2023/03/25 08:03:48;;;;;;;11.75;1.52;;;8.90;99.90;;;;;;5091823;28;20582;-37
2023/03/25 08:06:13;;;;;;;8.77;1.58;;;8.90;99.90;;;;;;5083107;28;20043;-37
2023/03/25 08:08:39;;;;;;;16.55;1.63;;;8.90;99.90;;;;;;5091882;28;20424;-37
2023/03/25 08:11:05;;;;;;;12.50;2.15;;;9.00;99.90;;;;;;5091497;28;20055;-37
2023/03/25 08:13:31;;;;;;;9.27;1.20;;;9.00;99.90;;;;;;5088445;28;20077;-37
2023/03/25 08:15:57;;;;;;;12.23;3.13;;;9.00;99.90;;;;;;5083894;28;20133;-37
2023/03/25 08:18:23;;;;;;;17.65;1.92;;;9.00;99.90;;;;;;5091343;28;20139;-37
2023/03/25 08:20:52;;;;;;;13.32;1.75;;;9.00;99.90;;;;;;5092015;28;20055;-44
2023/03/25 08:23:19;;;;;;;13.52;2.03;;;9.00;99.90;;;;;;5087231;28;20481;-37
2023/03/25 08:25:49;;;;;;;10.52;2.08;;;9.00;99.90;;;;;;5091220;28;20048;-35
2023/03/25 08:28:23;;;;;;;15.55;3.05;;;9.00;99.90;;;;;;5091317;28;20044;-38
2023/03/25 08:30:55;;;;;;;12.43;1.65;;;9.00;99.90;;;;;;5091121;28;20162;-37
2023/03/25 08:33:25;;;;;;;12.32;1.70;;;9.10;99.90;;;;;;5088629;28;20056;-37
2023/03/25 08:35:52;;;;;;;8.30;1.88;;;9.10;99.90;;;;;;5091348;28;20101;-36
2023/03/25 08:38:17;;;;;;;12.77;1.85;;;9.10;99.90;;;;;;5086933;28;20048;-36
2023/03/25 08:40:43;;;;;;;12.20;1.40;;;9.20;99.90;;;;;;5091668;28;20051;-36
2023/03/25 08:43:10;;;;;;;8.55;1.42;;;9.20;99.90;;;;;;5064488;28;20048;-35
2023/03/25 08:45:35;;;;;;;13.02;1.77;;;9.20;99.90;;;;;;5087043;28;20052;-36
2023/03/25 08:48:02;;;;;;;10.25;1.67;;;9.20;99.90;;;;;;5087935;28;20055;-36
2023/03/25 08:50:29;;;;;;;10.32;1.70;;;9.20;99.90;;;;;;5088574;28;20078;-36
2023/03/25 08:52:57;;;;;;;12.75;1.58;;;9.20;99.90;;;;;;5089797;28;20553;-36
2023/03/25 08:55:23;;;;;;;15.18;2.40;;;9.20;99.90;;;;;;5080675;28;20473;-36
2023/03/25 08:57:49;;;;;;;9.98;2.17;;;9.30;99.90;;;;;;5090905;28;20131;-36
2023/03/25 09:00:16;;;;;;;10.27;0.90;;;9.40;99.90;;;;;;5081940;28;20135;-36
2023/03/25 09:02:42;;;;;;;14.23;1.80;;;9.40;99.90;;;;;;5085685;28;20139;-37
2023/03/25 09:05:10;;;;;;;11.05;1.20;;;9.50;99.90;;;;;;5087806;28;20054;-36
2023/03/25 09:07:36;;;;;;;9.55;1.00;;;9.50;99.90;;;;;;5090872;28;20048;-37
2023/03/25 09:10:04;;;;;;;9.35;1.10;;;9.50;99.90;;;;;;5089431;28;20444;-35
2023/03/25 09:12:29;;;;;;;6.97;1.25;;;9.50;99.90;;;;;;5090817;28;20141;-36
2023/03/25 09:14:55;;;;;;;10.32;1.30;;;9.50;99.90;;;;;;5085187;28;20048;-37
2023/03/25 09:17:21;;;;;;;12.45;1.17;;;9.50;99.90;;;;;;5081515;28;20056;-36
2023/03/25 09:19:47;;;;;;;9.82;1.10;;;9.50;99.90;;;;;;5090096;28;20079;-36
2023/03/25 09:22:13;;;;;;;8.65;1.00;;;9.50;99.90;;;;;;5090490;28;20052;-36
2023/03/25 09:24:39;;;;;;;9.35;1.13;;;9.50;99.90;;;;;;5083734;28;20052;-36
2023/03/25 09:27:05;;;;;;;10.35;1.10;;;9.50;99.90;;;;;;5090529;28;20091;-37
2023/03/25 09:29:31;;;;;;;10.48;2.83;;;9.50;99.90;;;;;;5084837;28;20044;-36
2023/03/25 09:31:58;;;;;;;6.43;1.17;;;9.60;99.90;;;;;;5080076;28;20063;-37
2023/03/25 09:34:25;;;;;;;9.80;2.03;;;9.70;99.90;;;;;;5089418;28;20189;-37
2023/03/25 09:36:52;;;;;;;9.65;1.40;;;9.70;99.90;;;;;;5090604;28;20410;-37
2023/03/25 09:39:17;;;;;;;8.80;1.27;;;9.80;99.90;;;;;;5088649;28;20047;-38
2023/03/25 09:41:56;;;;;;;7.35;0.90;;;9.90;99.90;;;;;;5089006;28;20524;-36
2023/03/25 09:44:44;;;;;;;10.23;1.52;;;9.80;99.90;;;;;;5088174;28;20143;-37
2023/03/25 09:47:11;;;;;;;16.33;1.50;;;9.70;99.90;;;;;;5087199;28;20067;-37
2023/03/25 09:49:52;;;;;;;13.35;1.52;;;9.50;99.90;;;;;;5078513;28;20466;-38
2023/03/25 09:52:24;;;;;;;9.20;1.42;;;9.50;99.90;;;;;;5090006;28;20075;-37
2023/03/25 09:54:58;;;;;;;9.05;1.23;;;9.50;99.90;;;;;;5088035;28;20048;-37
2023/03/25 09:57:29;;;;;;;8.88;1.70;;;9.60;99.90;;;;;;5089769;28;20060;-36
2023/03/25 09:59:57;;;;;;;9.70;1.92;;;9.70;99.90;;;;;;5086574;28;20436;-48
2023/03/25 10:02:29;;;;;;;11.00;1.05;;;9.80;99.90;;;;;;5084699;28;20055;-37
2023/03/25 10:05:20;;;;;;;11.55;1.38;;;9.90;99.90;;;;;;5089222;28;20087;-37
2023/03/25 10:08:21;;;;;;;7.85;1.15;;;10.00;99.90;;;;;;5089700;28;20044;-41
2023/03/25 10:10:56;;;;;;;8.90;0.88;;;10.00;99.90;;;;;;5085488;28;20519;-43
2023/03/25 10:13:26;;;;;;;7.60;1.00;;;10.00;99.90;;;;;;5089835;28;20055;-37
2023/03/25 10:15:55;;;;;;;7.32;0.95;;;10.10;99.90;;;;;;5079319;28;21108;-36
2023/03/25 10:18:44;;;;;;;5.25;0.90;;;10.20;99.90;;;;;;5082757;28;20048;-37
2023/03/25 10:21:48;;;;;;;9.35;1.55;;;10.40;99.90;;;;;;5083126;28;20052;-37
2023/03/25 10:24:21;;;;;;;8.30;0.88;;;10.40;99.90;;;;;;5085556;28;20060;-37
2023/03/25 10:26:53;;;;;;;7.93;0.98;;;10.50;99.90;;;;;;5089469;28;20047;-37
2023/03/25 10:29:26;;;;;;;12.55;1.38;;;10.50;99.90;;;;;;5086448;28;20051;-37
2023/03/25 10:31:56;;;;;;;12.23;1.23;;;10.50;99.90;;;;;;5084090;28;20493;-37
2023/03/25 10:34:32;;;;;;;6.88;1.00;;;10.50;99.90;;;;;;5085971;28;20147;-37
2023/03/25 10:37:03;;;;;;;10.43;1.42;;;10.50;99.90;;;;;;5082466;28;20058;-38
2023/03/25 10:39:38;;;;;;;11.80;1.55;;;10.50;99.90;;;;;;5087543;28;20064;-37
2023/03/25 10:42:24;;;;;;;12.65;1.98;;;10.50;99.90;;;;;;5078080;28;20537;-37
2023/03/25 10:44:51;;;;;;;9.02;1.48;;;10.50;99.90;;;;;;5088937;28;20425;-37
2023/03/25 10:47:25;;;;;;;9.50;1.67;;;10.60;99.90;;;;;;5086463;28;20068;-37
2023/03/25 10:49:53;;;;;;;9.23;1.17;;;10.60;99.90;;;;;;5089256;28;20402;-37
2023/03/25 10:52:19;;;;;;;6.78;1.02;;;10.70;99.90;;;;;;5087096;28;20048;-38
2023/03/25 10:54:52;;;;;;;8.70;1.00;;;10.80;99.90;;;;;;5089091;28;20070;-37
2023/03/25 10:57:29;;;;;;;12.27;1.25;;;10.80;99.90;;;;;;5084440;28;20050;-36
2023/03/25 10:59:58;;;;;;;9.20;1.13;;;10.80;99.90;;;;;;5085899;28;20190;-37
2023/03/25 11:02:27;;;;;;;9.23;1.95;;;10.80;99.90;;;;;;5085429;28;20516;-37
2023/03/25 11:04:56;;;;;;;7.38;1.10;;;10.90;99.90;;;;;;5086350;28;20520;-36
2023/03/25 11:07:29;;;;;;;9.85;1.10;;;11.00;99.90;;;;;;5087930;28;20056;-37
2023/03/25 11:10:27;;;;;;;12.02;1.40;;;11.10;99.90;;;;;;5088645;28;20184;-36
2023/03/25 11:12:55;;;;;;;8.82;0.75;;;11.20;99.90;;;;;;5066806;28;20068;-36
2023/03/25 11:15:24;;;;;;;13.38;1.65;;;11.30;99.90;;;;;;5088481;28;20516;-37
2023/03/25 11:18:09;;;;;;;8.98;1.20;;;11.50;99.90;;;;;;5086757;28;20079;-36
2023/03/25 11:20:38;;;;;;;7.65;1.27;;;11.70;99.90;;;;;;5087326;28;20047;-36
2023/03/25 11:23:26;;;;;;;7.20;0.90;;;11.80;97.40;;;;;;5088210;28;20087;-36
2023/03/25 11:25:54;;;;;;;9.65;1.20;;;11.90;98.10;;;;;;5085069;28;20506;-36
2023/03/25 11:28:34;;;;;;;8.75;1.13;;;11.90;98.50;;;;;;5081503;28;20074;-36
2023/03/25 11:31:07;;;;;;;10.00;1.30;;;11.90;98.80;;;;;;5083869;28;20067;-36
2023/03/25 11:33:35;;;;;;;6.40;0.93;;;11.90;97.20;;;;;;5081638;28;20052;-36
2023/03/25 11:36:15;;;;;;;7.10;1.42;;;11.70;97.30;;;;;;5085404;28;20477;-36
2023/03/25 11:38:46;;;;;;;10.50;1.10;;;11.60;98.60;;;;;;5086153;28;20509;-36
2023/03/25 11:41:13;;;;;;;6.15;1.15;;;11.50;98.60;;;;;;5088374;28;20504;-36
2023/03/25 11:43:39;;;;;;;12.98;1.23;;;11.60;98.50;;;;;;5082234;28;20626;-36
2023/03/25 11:46:13;;;;;;;7.95;1.00;;;11.70;99.20;;;;;;5088014;28;20044;-37
2023/03/25 11:48:41;;;;;;;7.68;1.15;;;11.80;98.70;;;;;;5086864;28;20044;-38
2023/03/25 11:51:24;;;;;;;10.27;1.15;;;11.80;97.70;;;;;;5082132;28;20052;-37
2023/03/25 11:53:59;;;;;;;13.43;1.60;;;11.70;97.50;;;;;;5083503;28;20249;-37
2023/03/25 11:56:55;;;;;;;9.90;0.93;;;11.60;97.90;;;;;;5083727;28;20056;-37
2023/03/25 11:59:32;;;;;;;10.23;1.38;;;11.50;97.10;;;;;;5065865;28;20093;-37
2023/03/25 12:02:16;;;;;;;11.23;1.30;;;11.60;97.70;;;;;;5083472;28;20055;-37
2023/03/25 12:05:01;;;;;;;7.65;0.88;;;11.70;95.80;;;;;;5084789;28;20077;-37
2023/03/25 12:07:28;;;;;;;10.35;1.15;;;11.70;96.40;;;;;;5079940;28;20497;-37
2023/03/25 12:10:02;;;;;;;13.60;1.48;;;11.70;95.90;;;;;;5086015;28;20048;-37
2023/03/25 12:12:50;;;;;;;7.45;0.65;;;11.90;96.90;;;;;;5080438;28;20048;-37
2023/03/25 12:15:26;;;;;;;9.95;1.30;;;12.00;97.30;;;;;;5079518;28;20529;-36
2023/03/25 12:18:00;;;;;;;9.05;1.30;;;11.90;96.60;;;;;;5080172;28;20044;-37
2023/03/25 12:20:45;;;;;;;14.13;1.55;;;11.90;96.90;;;;;;5080335;28;20052;-37
2023/03/25 12:23:19;;;;;;;9.32;1.33;;;11.80;95.70;;;;;;5086068;28;20055;-37
2023/03/25 12:25:52;;;;;;;9.73;1.35;;;11.60;95.10;;;;;;5088783;28;20308;-37
2023/03/25 12:28:33;;;;;;;15.38;2.35;;;11.40;95.60;;;;;;5085345;28;20051;-36
2023/03/25 12:31:24;;;;;;;9.57;1.00;;;11.40;95.80;;;;;;5078009;28;20390;-37
2023/03/25 12:34:08;;;;;;;9.93;1.20;;;11.70;96.10;;;;;;5087619;28;20055;-37
2023/03/25 12:37:10;;;;;;;9.18;1.02;;;11.80;95.90;;;;;;5080577;28;20040;-37
2023/03/25 12:39:54;;;;;;;9.05;1.48;;;12.00;95.80;;;;;;5037043;28;20050;-38
2023/03/25 12:42:41;;;;;;;8.48;1.25;;;12.20;94.90;;;;;;5084238;28;20056;-37
2023/03/25 12:45:21;;;;;;;12.00;2.05;;;12.30;94.60;;;;;;5089137;28;20055;-36
2023/03/25 12:48:10;;;;;;;11.02;1.98;;;12.30;94.90;;;;;;5085741;28;20044;-37
2023/03/25 12:51:00;;;;;;;9.85;1.40;;;12.30;95.10;;;;;;5073503;28;20066;-37
2023/03/25 12:53:38;;;;;;;11.45;1.40;;;12.30;94.30;;;;;;5083200;28;20052;-44
2023/03/25 12:56:22;;;;;;;7.80;0.90;;;12.30;95.00;;;;;;5083453;28;20047;-38
2023/03/25 12:59:02;;;;;;;11.40;1.30;;;12.20;95.10;;;;;;5088726;28;20413;-41
2023/03/25 13:01:52;;;;;;;6.40;0.80;;;12.40;94.90;;;;;;5088635;28;20606;-37
2023/03/25 13:04:48;;;;;;;7.90;1.45;;;12.60;93.10;;;;;;5082843;28;20561;-37
2023/03/25 13:07:19;;;;;;;9.63;1.83;;;12.90;91.30;;;;;;5053579;28;20493;-37
2023/03/25 13:10:04;;;;;;;4.35;0.90;;;13.20;91.40;;;;;;5091536;28;20048;-37
2023/03/25 13:12:34;;;;;;;15.02;1.63;;;13.30;91.00;;;;;;5070239;28;20524;-37